createdAt,value
2019-05-11T00:00:21.215Z,99090
2019-05-11T00:02:20.838Z,99080
2019-05-11T00:04:21.040Z,99070
2019-05-11T00:06:20.687Z,99060
2019-05-11T00:08:20.559Z,99050
2019-05-11T00:10:23.399Z,99050
2019-05-11T00:12:20.669Z,99050
2019-05-11T00:14:20.542Z,99040
2019-05-11T00:16:20.324Z,99040
2019-05-11T00:18:20.943Z,99050
2019-05-11T00:20:20.397Z,99050
2019-05-11T00:22:20.012Z,99060
2019-05-11T00:24:19.843Z,99060
2019-05-11T00:26:20.268Z,99060
2019-05-11T00:28:19.960Z,99060
2019-05-11T00:30:20.030Z,99060
2019-05-11T00:32:22.738Z,99040
2019-05-11T00:34:19.509Z,99040
2019-05-11T00:36:19.921Z,99050
2019-05-11T00:38:19.486Z,99070
2019-05-11T00:40:19.600Z,99070
2019-05-11T00:42:19.309Z,99070
2019-05-11T00:44:19.309Z,99050
2019-05-11T00:46:19.376Z,99040
2019-05-11T00:48:20.267Z,99040
2019-05-11T00:50:19.264Z,99040
2019-05-11T00:52:01.093Z,99040
2019-05-11T00:52:01.218Z,99040
2019-05-11T00:52:19.228Z,99030
2019-05-11T00:54:19.193Z,99030
2019-05-11T00:56:18.852Z,99030
2019-05-11T00:58:18.926Z,99010
2019-05-11T01:00:19.080Z,99000
2019-05-11T01:02:18.882Z,98990
2019-05-11T01:04:18.794Z,99000
2019-05-11T01:06:18.570Z,99000
2019-05-11T01:08:18.413Z,98990
2019-05-11T01:10:25.471Z,98990
2019-05-11T01:12:19.327Z,98990
2019-05-11T01:14:18.470Z,98990
2019-05-11T01:16:19.278Z,99000
2019-05-11T01:18:18.005Z,98990
2019-05-11T01:20:18.718Z,98990
2019-05-11T01:22:18.303Z,98990
2019-05-11T01:24:17.856Z,98980
2019-05-11T01:26:17.827Z,98980
2019-05-11T01:28:17.652Z,98980
2019-05-11T01:30:17.784Z,98980
2019-05-11T01:32:17.512Z,98970
2019-05-11T01:34:17.378Z,98970
2019-05-11T01:36:17.409Z,98960
2019-05-11T01:38:17.170Z,98970
2019-05-11T01:40:17.324Z,98970
2019-05-11T01:42:17.112Z,98960
2019-05-11T01:44:16.868Z,98970
2019-05-11T01:46:16.936Z,98970
2019-05-11T01:48:17.863Z,98960
2019-05-11T01:50:16.941Z,98970
2019-05-11T01:52:17.807Z,98970
2019-05-11T01:54:16.556Z,98970
2019-05-11T01:56:16.465Z,98960
2019-05-11T01:58:17.180Z,98960
2019-05-11T02:00:16.703Z,98970
2019-05-11T02:02:16.191Z,98970
2019-05-11T02:04:16.287Z,98970
2019-05-11T02:06:16.167Z,98970
2019-05-11T02:08:16.002Z,98970
2019-05-11T02:10:16.748Z,98970
2019-05-11T02:12:15.931Z,98960
2019-05-11T02:14:15.749Z,98960
2019-05-11T02:16:16.036Z,98960
2019-05-11T02:18:15.886Z,98960
2019-05-11T02:20:15.908Z,98950
2019-05-11T02:22:15.777Z,98950
2019-05-11T02:24:15.402Z,98940
2019-05-11T02:26:15.419Z,98950
2019-05-11T02:28:15.313Z,98960
2019-05-11T02:30:15.915Z,98950
2019-05-11T02:32:15.143Z,98940
2019-05-11T02:34:15.496Z,98930
2019-05-11T02:36:15.003Z,98940
2019-05-11T02:38:14.874Z,98930
2019-05-11T02:40:15.815Z,98930
2019-05-11T02:42:14.878Z,98930
2019-05-11T02:44:14.657Z,98930
2019-05-11T02:46:14.740Z,98940
2019-05-11T02:48:14.531Z,98940
2019-05-11T02:50:14.526Z,98930
2019-05-11T02:52:14.904Z,98920
2019-05-11T02:54:15.032Z,98920
2019-05-11T02:56:14.205Z,98920
2019-05-11T02:58:14.143Z,98930
2019-05-11T03:00:20.537Z,98930
2019-05-11T03:02:13.933Z,98930
2019-05-11T03:04:14.067Z,98930
2019-05-11T03:06:13.853Z,98920
2019-05-11T03:08:13.841Z,98920
2019-05-11T03:10:13.910Z,98920
2019-05-11T03:12:13.705Z,98930
2019-05-11T03:14:13.525Z,98930
2019-05-11T03:16:13.498Z,98940
2019-05-11T03:18:13.541Z,98930
2019-05-11T03:20:13.542Z,98930
2019-05-11T03:28:13.758Z,98930
2019-05-11T03:30:13.440Z,98920
2019-05-11T03:32:13.627Z,98920
2019-05-11T03:34:12.854Z,98920
2019-05-11T03:36:12.675Z,98920
2019-05-11T03:38:12.774Z,98920
2019-05-11T03:40:13.658Z,98930
2019-05-11T03:42:14.979Z,98920
2019-05-11T03:44:12.511Z,98920
2019-05-11T03:46:12.239Z,98920
2019-05-11T03:48:12.186Z,98920
2019-05-11T03:50:12.594Z,98920
2019-05-11T03:52:12.162Z,98920
2019-05-11T03:54:11.988Z,98920
2019-05-11T03:56:11.799Z,98930
2019-05-11T03:58:12.493Z,98930
2019-05-11T04:00:11.965Z,98930
2019-05-11T04:02:11.592Z,98930
2019-05-11T04:04:15.974Z,98930
2019-05-11T04:06:11.551Z,98920
2019-05-11T04:08:11.531Z,98930
2019-05-11T04:10:12.007Z,98930
2019-05-11T04:12:11.292Z,98930
2019-05-11T04:14:11.206Z,98920
2019-05-11T04:16:11.177Z,98920
2019-05-11T04:18:11.080Z,98920
2019-05-11T04:20:11.269Z,98920
2019-05-11T04:22:11.109Z,98910
2019-05-11T04:24:11.088Z,98910
2019-05-11T04:26:11.643Z,98910
2019-05-11T04:28:10.709Z,98920
2019-05-11T04:30:11.667Z,98920
2019-05-11T04:32:10.549Z,98920
2019-05-11T04:34:10.676Z,98920
2019-05-11T04:36:11.023Z,98920
2019-05-11T04:38:10.473Z,98920
2019-05-11T04:40:11.010Z,98930
2019-05-11T04:42:10.448Z,98930
2019-05-11T04:44:10.349Z,98940
2019-05-11T04:46:10.976Z,98940
2019-05-11T04:48:10.336Z,98940
2019-05-11T04:50:10.966Z,98940
2019-05-11T04:52:10.345Z,98950
2019-05-11T04:54:10.242Z,98950
2019-05-11T04:56:10.251Z,98950
2019-05-11T04:58:10.337Z,98950
2019-05-11T05:00:11.891Z,98950
2019-05-11T05:02:10.192Z,98950
2019-05-11T05:04:14.242Z,98960
2019-05-11T05:06:22.193Z,98960
2019-05-11T05:08:10.200Z,98960
2019-05-11T05:10:14.003Z,98960
2019-05-11T05:12:14.019Z,98960
2019-05-11T05:14:10.424Z,98960
2019-05-11T05:16:09.727Z,98960
2019-05-11T05:18:10.833Z,98960
2019-05-11T05:20:10.306Z,98970
2019-05-11T05:22:09.680Z,98970
2019-05-11T05:24:09.616Z,98970
2019-05-11T05:26:09.753Z,98980
2019-05-11T05:28:09.608Z,98970
2019-05-11T05:30:11.466Z,98990
2019-05-11T05:32:09.641Z,98990
2019-05-11T05:34:09.479Z,98990
2019-05-11T05:36:09.547Z,98990
2019-05-11T05:38:09.589Z,98990
2019-05-11T05:40:10.130Z,98990
2019-05-11T05:42:09.604Z,99000
2019-05-11T05:44:09.713Z,99000
2019-05-11T05:46:09.846Z,99010
2019-05-11T05:48:09.424Z,99010
2019-05-11T05:50:10.357Z,99020
2019-05-11T05:52:09.610Z,99030
2019-05-11T05:54:09.450Z,99020
2019-05-11T05:56:09.716Z,99020
2019-05-11T05:58:09.564Z,99020
2019-05-11T06:00:10.104Z,99020
2019-05-11T06:02:10.481Z,99030
2019-05-11T06:06:09.488Z,99040
2019-05-11T06:08:09.539Z,99040
2019-05-11T06:10:10.305Z,99040
2019-05-11T06:12:09.473Z,99040
2019-05-11T06:14:09.597Z,99050
2019-05-11T06:16:09.496Z,99060
2019-05-11T06:18:10.297Z,99060
2019-05-11T06:20:09.965Z,99070
2019-05-11T06:22:09.542Z,99080
2019-05-11T06:24:09.427Z,99080
2019-05-11T06:26:09.901Z,99080
2019-05-11T06:28:09.367Z,99080
2019-05-11T06:30:09.764Z,99090
2019-05-11T06:32:09.435Z,99110
2019-05-11T06:34:10.445Z,99120
2019-05-11T06:36:09.455Z,99130
2019-05-11T06:38:09.391Z,99130
2019-05-11T06:40:09.741Z,99130
2019-05-11T06:42:09.564Z,99130
2019-05-11T06:44:09.457Z,99150
2019-05-11T06:46:09.456Z,99150
2019-05-11T06:48:09.538Z,99160
2019-05-11T06:50:10.006Z,99160
2019-05-11T06:52:09.393Z,99170
2019-05-11T06:54:09.871Z,99170
2019-05-11T06:56:09.579Z,99190
2019-05-11T06:58:09.352Z,99190
2019-05-11T07:00:10.196Z,99190
2019-05-11T07:02:09.459Z,99190
2019-05-11T07:04:09.384Z,99200
2019-05-11T07:06:09.385Z,99200
2019-05-11T07:08:09.482Z,99200
2019-05-11T07:10:10.980Z,99210
2019-05-11T07:12:09.687Z,99220
2019-05-11T07:14:20.164Z,99230
2019-05-11T07:16:09.616Z,99230
2019-05-11T07:18:09.451Z,99240
2019-05-11T07:20:09.754Z,99240
2019-05-11T07:22:09.339Z,99240
2019-05-11T07:24:09.442Z,99240
2019-05-11T07:26:09.585Z,99250
2019-05-11T07:28:09.443Z,99260
2019-05-11T07:30:10.149Z,99270
2019-05-11T07:32:20.021Z,99270
2019-05-11T07:34:09.497Z,99280
2019-05-11T07:36:09.485Z,99290
2019-05-11T07:38:09.482Z,99290
2019-05-11T07:40:10.063Z,99300
2019-05-11T07:42:09.416Z,99310
2019-05-11T07:44:10.084Z,99310
2019-05-11T07:46:10.711Z,99310
2019-05-11T07:48:09.351Z,99320
2019-05-11T07:50:09.790Z,99330
2019-05-11T07:52:09.548Z,99340
2019-05-11T07:54:09.285Z,99340
2019-05-11T07:56:09.086Z,99350
2019-05-11T07:58:09.817Z,99360
2019-05-11T08:00:09.954Z,99360
2019-05-11T08:02:09.212Z,99380
2019-05-11T08:04:09.109Z,99380
2019-05-11T08:06:09.150Z,99400
2019-05-11T08:08:09.212Z,99400
2019-05-11T08:10:09.625Z,99400
2019-05-11T08:12:09.124Z,99400
2019-05-11T08:14:09.078Z,99400
2019-05-11T08:16:09.090Z,99410
2019-05-11T08:18:09.029Z,99410
2019-05-11T08:20:09.439Z,99420
2019-05-11T08:22:09.061Z,99440
2019-05-11T08:24:09.439Z,99450
2019-05-11T08:26:09.536Z,99450
2019-05-11T08:28:12.008Z,99450
2019-05-11T08:30:10.626Z,99460
2019-05-11T08:32:08.925Z,99460
2019-05-11T08:34:09.136Z,99470
2019-05-11T08:36:09.577Z,99470
2019-05-11T08:38:09.228Z,99480
2019-05-11T08:40:10.615Z,99490
2019-05-11T08:42:09.046Z,99500
2019-05-11T08:44:09.140Z,99500
2019-05-11T08:46:09.367Z,99500
2019-05-11T08:48:08.949Z,99510
2019-05-11T08:50:09.414Z,99510
2019-05-11T08:52:09.099Z,99510
2019-05-11T08:54:09.190Z,99510
2019-05-11T08:56:13.020Z,99520
2019-05-11T08:58:09.525Z,99520
2019-05-11T09:00:13.436Z,99520
2019-05-11T09:02:09.007Z,99530
2019-05-11T09:04:09.244Z,99520
2019-05-11T09:06:08.993Z,99530
2019-05-11T09:08:09.023Z,99530
2019-05-11T09:10:09.204Z,99530
2019-05-11T09:12:08.897Z,99540
2019-05-11T09:14:09.115Z,99540
2019-05-11T09:16:09.077Z,99550
2019-05-11T09:18:09.090Z,99550
2019-05-11T09:20:11.003Z,99550
2019-05-11T09:22:08.994Z,99550
2019-05-11T09:24:08.951Z,99550
2019-05-11T09:26:09.018Z,99570
2019-05-11T09:28:08.884Z,99560
2019-05-11T09:30:09.641Z,99570
2019-05-11T09:32:09.011Z,99580
2019-05-11T09:34:09.214Z,99590
2019-05-11T09:36:08.993Z,99590
2019-05-11T09:38:08.983Z,99590
2019-05-11T09:40:09.139Z,99590
2019-05-11T09:42:08.947Z,99600
2019-05-11T09:44:09.176Z,99600
2019-05-11T09:46:08.865Z,99610
2019-05-11T09:48:08.841Z,99610
2019-05-11T09:50:09.298Z,99620
2019-05-11T09:52:08.908Z,99610
2019-05-11T09:54:09.116Z,99610
2019-05-11T09:56:09.916Z,99620
2019-05-11T09:58:08.917Z,99620
2019-05-11T10:00:09.978Z,99620
2019-05-11T10:02:08.939Z,99630
2019-05-11T10:04:10.178Z,99630
2019-05-11T10:06:08.887Z,99630
2019-05-11T10:08:09.270Z,99640
2019-05-11T10:10:09.645Z,99650
2019-05-11T10:12:08.983Z,99650
2019-05-11T10:14:08.817Z,99650
2019-05-11T10:16:10.630Z,99650
2019-05-11T10:18:08.748Z,99650
2019-05-11T10:20:09.591Z,99660
2019-05-11T10:22:08.851Z,99660
2019-05-11T10:24:08.924Z,99660
2019-05-11T10:26:08.681Z,99670
2019-05-11T10:28:08.856Z,99680
2019-05-11T10:30:09.663Z,99680
2019-05-11T10:32:08.810Z,99680
2019-05-11T10:34:08.892Z,99690
2019-05-11T10:36:08.858Z,99700
2019-05-11T10:38:09.201Z,99700
2019-05-11T10:40:09.804Z,99700
2019-05-11T10:42:08.833Z,99710
2019-05-11T10:44:08.746Z,99710
2019-05-11T10:46:19.563Z,99720
2019-05-11T10:48:08.997Z,99720
2019-05-11T10:50:10.379Z,99720
2019-05-11T10:52:09.866Z,99730
2019-05-11T10:54:08.984Z,99740
2019-05-11T10:56:08.967Z,99750
2019-05-11T10:58:09.075Z,99750
2019-05-11T11:00:09.865Z,99750
2019-05-11T11:02:09.186Z,99760
2019-05-11T11:04:08.994Z,99760
2019-05-11T11:06:09.250Z,99760
2019-05-11T11:08:09.239Z,99770
2019-05-11T11:10:10.423Z,99760
2019-05-11T11:12:09.371Z,99770
2019-05-11T11:14:09.304Z,99780
2019-05-11T11:16:10.148Z,99790
2019-05-11T11:18:09.353Z,99790
2019-05-11T11:20:10.172Z,99780
2019-05-11T11:22:33.283Z,99780
2019-05-11T11:24:09.508Z,99780
2019-05-11T11:26:09.629Z,99790
2019-05-11T11:28:09.748Z,99790
2019-05-11T11:30:11.726Z,99790
2019-05-11T11:32:09.986Z,99790
2019-05-11T11:34:10.659Z,99790
2019-05-11T11:36:09.734Z,99790
2019-05-11T11:38:10.987Z,99790
2019-05-11T11:40:11.044Z,99790
2019-05-11T11:42:09.947Z,99800
2019-05-11T11:44:10.102Z,99790
2019-05-11T11:46:10.151Z,99790
2019-05-11T11:48:10.307Z,99790
2019-05-11T11:50:10.444Z,99790
2019-05-11T11:52:10.275Z,99790
2019-05-11T11:54:10.570Z,99790
2019-05-11T11:56:10.209Z,99810
2019-05-11T11:58:10.413Z,99800
2019-05-11T12:00:11.660Z,99810
2019-05-11T12:02:10.389Z,99810
2019-05-11T12:04:10.400Z,99810
2019-05-11T12:06:10.383Z,99820
2019-05-11T12:08:10.571Z,99820
2019-05-11T12:10:13.035Z,99820
2019-05-11T12:12:10.925Z,99830
2019-05-11T12:14:11.317Z,99830
2019-05-11T12:16:10.772Z,99840
2019-05-11T12:18:10.689Z,99860
2019-05-11T12:20:11.130Z,99870
2019-05-11T12:22:10.904Z,99870
2019-05-11T12:24:10.647Z,99880
2019-05-11T12:26:10.728Z,99870
2019-05-11T12:28:10.821Z,99880
2019-05-11T12:30:11.179Z,99880
2019-05-11T12:32:10.862Z,99880
2019-05-11T12:34:10.890Z,99870
2019-05-11T12:36:10.793Z,99870
2019-05-11T12:38:10.897Z,99870
2019-05-11T12:40:11.259Z,99870
2019-05-11T12:42:10.860Z,99880
2019-05-11T12:44:10.871Z,99880
2019-05-11T12:46:11.222Z,99880
2019-05-11T12:48:10.948Z,99880
2019-05-11T12:50:11.416Z,99890
2019-05-11T12:52:11.185Z,99900
2019-05-11T12:54:11.089Z,99890
2019-05-11T12:56:11.319Z,99900
2019-05-11T12:58:11.125Z,99890
2019-05-11T13:00:13.099Z,99900
2019-05-11T13:02:11.324Z,99900
2019-05-11T13:04:13.467Z,99890
2019-05-11T13:06:11.633Z,99900
2019-05-11T13:08:11.345Z,99900
2019-05-11T13:10:11.802Z,99890
2019-05-11T13:12:11.628Z,99910
2019-05-11T13:14:11.645Z,99900
2019-05-11T13:16:11.650Z,99900
2019-05-11T13:18:11.518Z,99900
2019-05-11T13:20:13.018Z,99900
2019-05-11T13:22:12.119Z,99900
2019-05-11T13:24:11.788Z,99900
2019-05-11T13:26:13.515Z,99900
2019-05-11T13:28:11.782Z,99900
2019-05-11T13:30:12.261Z,99910
2019-05-11T13:32:12.976Z,99910
2019-05-11T13:34:12.116Z,99910
2019-05-11T13:36:12.136Z,99910
2019-05-11T13:38:12.298Z,99910
2019-05-11T13:40:12.766Z,99920
2019-05-11T13:42:12.656Z,99910
2019-05-11T13:44:12.832Z,99910
2019-05-11T13:46:13.787Z,99910
2019-05-11T13:48:12.673Z,99910
2019-05-11T13:50:13.261Z,99910
2019-05-11T13:52:12.800Z,99920
2019-05-11T13:54:12.808Z,99920
2019-05-11T13:56:12.888Z,99920
2019-05-11T13:58:12.897Z,99920
2019-05-11T14:00:13.627Z,99930
2019-05-11T14:02:13.135Z,99920
2019-05-11T14:04:13.374Z,99920
2019-05-11T14:06:13.471Z,99920
2019-05-11T14:08:13.493Z,99930
2019-05-11T14:10:14.111Z,99920
2019-05-11T14:12:13.992Z,99930
2019-05-11T14:14:14.352Z,99930
2019-05-11T14:16:14.290Z,99930
2019-05-11T14:18:14.698Z,99930
2019-05-11T14:20:15.545Z,99930
2019-05-11T14:22:15.273Z,99930
2019-05-11T14:24:15.547Z,99940
2019-05-11T14:26:15.980Z,99950
2019-05-11T14:28:17.964Z,99950
2019-05-11T14:30:18.806Z,99960
2019-05-11T14:32:17.859Z,99950
2019-05-11T14:34:18.240Z,99950
2019-05-11T14:36:18.432Z,99940
2019-05-11T14:38:18.751Z,99940
2019-05-11T14:40:18.289Z,99940
2019-05-11T14:42:22.077Z,99950
2019-05-11T14:44:18.705Z,99940
2019-05-11T14:46:19.161Z,99940
2019-05-11T14:48:26.733Z,99940
2019-05-11T14:50:19.558Z,99930
2019-05-11T14:52:19.794Z,99930
2019-05-11T14:54:20.063Z,99920
2019-05-11T14:56:20.428Z,99930
2019-05-11T14:58:20.537Z,99940
2019-05-11T15:00:20.889Z,99930
2019-05-11T15:02:21.022Z,99930
2019-05-11T15:04:21.319Z,99940
2019-05-11T15:06:21.756Z,99940
2019-05-11T15:08:21.816Z,99940
2019-05-11T15:10:22.398Z,99940
2019-05-11T15:12:22.501Z,99940
2019-05-11T15:14:22.770Z,99940
2019-05-11T15:16:23.030Z,99950
2019-05-11T15:18:35.176Z,99950
2019-05-11T15:20:24.746Z,99950
2019-05-11T15:22:23.941Z,99950
2019-05-11T15:24:24.257Z,99960
2019-05-11T15:26:24.449Z,99960
2019-05-11T15:28:25.503Z,99960
2019-05-11T15:30:25.115Z,99960
2019-05-11T15:32:25.340Z,99960
2019-05-11T15:34:28.837Z,99960
2019-05-11T15:36:28.395Z,99960
2019-05-11T15:38:28.301Z,99960
2019-05-11T15:40:27.889Z,99970
2019-05-11T15:42:28.659Z,99970
2019-05-11T15:44:28.584Z,99970
2019-05-11T15:46:28.252Z,99970
2019-05-11T15:48:27.475Z,99970
2019-05-11T15:50:29.044Z,99970
2019-05-11T15:52:27.945Z,99970
2019-05-11T15:54:28.843Z,99970
2019-05-11T15:56:29.542Z,99970
2019-05-11T15:58:29.155Z,99970
2019-05-11T16:00:29.109Z,99970
2019-05-11T16:02:29.377Z,99970
2019-05-11T16:04:30.314Z,99970
2019-05-11T16:06:29.944Z,99980
2019-05-11T16:08:31.139Z,99970
2019-05-11T16:10:30.321Z,99970
2019-05-11T16:12:30.655Z,99970
2019-05-11T16:14:31.699Z,99970
2019-05-11T16:16:31.140Z,99970
2019-05-11T16:18:31.414Z,99970
2019-05-11T16:20:31.850Z,99970
2019-05-11T16:22:31.774Z,99970
2019-05-11T16:24:33.003Z,99970
2019-05-11T16:26:32.659Z,99970
2019-05-11T16:28:32.199Z,99970
2019-05-11T16:30:32.381Z,99970
2019-05-11T16:32:32.602Z,99970
2019-05-11T16:34:32.507Z,99980
2019-05-11T16:36:32.798Z,99980
2019-05-11T16:38:32.803Z,99980
2019-05-11T16:40:32.866Z,99980
2019-05-11T16:42:33.005Z,99980
2019-05-11T16:44:33.587Z,99990
2019-05-11T16:46:32.969Z,99990
2019-05-11T16:48:32.988Z,99990
2019-05-11T16:50:33.124Z,99990
2019-05-11T16:52:33.204Z,99990
2019-05-11T16:54:33.024Z,100000
2019-05-11T16:56:32.886Z,100000
2019-05-11T16:58:32.918Z,100000
2019-05-11T17:00:33.343Z,100000
2019-05-11T17:02:33.946Z,100010
2019-05-11T17:04:32.942Z,100010
2019-05-11T17:06:33.000Z,100010
2019-05-11T17:08:32.705Z,100010
2019-05-11T17:10:32.923Z,100010
2019-05-11T17:12:32.657Z,100020
2019-05-11T17:14:32.798Z,100020
2019-05-11T17:16:32.623Z,100020
2019-05-11T17:18:32.638Z,100030
2019-05-11T17:20:32.558Z,100030
2019-05-11T17:22:32.234Z,100030
2019-05-11T17:24:32.295Z,100030
2019-05-11T17:26:32.277Z,100030
2019-05-11T17:28:32.169Z,100030
2019-05-11T17:30:32.239Z,100030
2019-05-11T17:32:32.373Z,100040
2019-05-11T17:34:33.359Z,100040
2019-05-11T17:36:32.087Z,100040
2019-05-11T17:38:31.719Z,100040
2019-05-11T17:40:31.854Z,100050
2019-05-11T17:42:31.822Z,100050
2019-05-11T17:44:31.618Z,100050
2019-05-11T17:45:40.972Z,100050
2019-05-11T17:46:40.232Z,100050
2019-05-11T17:46:40.342Z,100050
2019-05-11T17:48:31.598Z,100050
2019-05-11T17:48:48.569Z,100050
2019-05-11T17:50:03.698Z,100050
2019-05-11T17:50:46.053Z,100050
2019-05-11T17:52:31.790Z,100050
2019-05-11T17:54:25.372Z,100050
2019-05-11T17:54:31.269Z,100060
2019-05-11T17:55:12.173Z,100060
2019-05-11T17:55:41.559Z,100060
2019-05-11T17:56:32.389Z,100060
2019-05-11T17:56:39.003Z,100060
2019-05-11T17:57:27.721Z,100060
2019-05-11T17:57:27.736Z,100060
2019-05-11T17:58:30.792Z,100060
2019-05-11T18:00:14.072Z,100060
2019-05-11T18:00:31.541Z,100060
2019-05-11T18:02:31.719Z,100060
2019-05-11T18:04:31.194Z,100060
2019-05-11T18:06:24.726Z,100060
2019-05-11T18:07:46.609Z,100070
2019-05-11T18:07:47.309Z,100070
2019-05-11T18:08:50.624Z,100070
2019-05-11T18:08:50.929Z,100070
2019-05-11T18:09:42.987Z,100070
2019-05-11T18:10:30.409Z,100070
2019-05-11T18:12:30.453Z,100070
2019-05-11T18:13:39.125Z,100070
2019-05-11T18:14:10.442Z,100070
2019-05-11T18:14:39.580Z,100070
2019-05-11T18:14:39.678Z,100070
2019-05-11T18:15:41.139Z,100070
2019-05-11T18:16:58.875Z,100070
2019-05-11T18:16:58.944Z,100070
2019-05-11T18:18:09.430Z,100070
2019-05-11T18:18:29.939Z,100070
2019-05-11T18:20:24.739Z,100070
2019-05-11T18:21:25.062Z,100070
2019-05-11T18:21:25.130Z,100070
2019-05-11T18:21:49.740Z,100070
2019-05-11T18:22:33.333Z,100070
2019-05-11T18:24:28.527Z,100070
2019-05-11T18:24:29.631Z,100070
2019-05-11T18:26:30.073Z,100070
2019-05-11T18:28:31.136Z,100080
2019-05-11T18:29:41.150Z,100080
2019-05-11T18:30:47.962Z,100080
2019-05-11T18:30:48.017Z,100080
2019-05-11T18:31:52.073Z,100080
2019-05-11T18:32:29.522Z,100080
2019-05-11T18:34:29.651Z,100090
2019-05-11T18:34:30.125Z,100090
2019-05-11T18:36:30.650Z,100090
2019-05-11T18:38:30.208Z,100090
2019-05-11T18:40:30.174Z,100100
2019-05-11T18:42:28.985Z,100100
2019-05-11T18:44:28.998Z,100100
2019-05-11T18:46:29.160Z,100110
2019-05-11T18:48:38.603Z,100110
2019-05-11T18:48:43.860Z,100110
2019-05-11T18:50:31.192Z,100120
2019-05-11T18:52:29.840Z,100120
2019-05-11T18:54:28.253Z,100120
2019-05-11T18:56:28.648Z,100120
2019-05-11T18:58:29.619Z,100130
2019-05-11T19:00:28.417Z,100130
2019-05-11T19:02:28.508Z,100130
2019-05-11T19:04:28.710Z,100130
2019-05-11T19:06:28.592Z,100140
2019-05-11T19:08:28.138Z,100140
2019-05-11T19:10:27.890Z,100140
2019-05-11T19:12:28.092Z,100140
2019-05-11T19:14:29.910Z,100140
2019-05-11T19:16:28.769Z,100140
2019-05-11T19:18:28.164Z,100140
2019-05-11T19:20:28.458Z,100150
2019-05-11T19:22:30.085Z,100150
2019-05-11T19:24:27.859Z,100150
2019-05-11T19:26:26.998Z,100150
2019-05-11T19:28:28.125Z,100160
2019-05-11T19:30:27.718Z,100150
2019-05-11T19:32:32.026Z,100150
2019-05-11T19:34:28.144Z,100160
2019-05-11T19:36:27.759Z,100160
2019-05-11T19:38:28.026Z,100160
2019-05-11T19:40:26.708Z,100160
2019-05-11T19:42:28.377Z,100160
2019-05-11T19:44:27.960Z,100170
2019-05-11T19:46:28.042Z,100170
2019-05-11T19:48:27.858Z,100180
2019-05-11T19:50:25.665Z,100180
2019-05-11T19:52:28.125Z,100180
2019-05-11T19:54:25.373Z,100190
2019-05-11T19:56:25.297Z,100180
2019-05-11T19:58:25.187Z,100190
2019-05-11T20:00:27.480Z,100190
2019-05-11T20:02:40.562Z,100200
2019-05-11T20:02:40.647Z,100200
2019-05-11T20:03:38.418Z,100200
2019-05-11T20:04:24.256Z,100200
2019-05-11T20:04:39.520Z,100200
2019-05-11T20:04:39.732Z,100200
2019-05-11T20:06:27.920Z,100210
2019-05-11T20:06:47.843Z,100210
2019-05-11T20:07:22.533Z,100210
2019-05-11T20:08:25.169Z,100210
2019-05-11T20:09:23.880Z,100210
2019-05-11T20:10:24.457Z,100210
2019-05-11T20:12:24.491Z,100220
2019-05-11T20:14:25.344Z,100220
2019-05-11T20:16:24.014Z,100220
2019-05-11T20:18:23.889Z,100220
2019-05-11T20:20:23.795Z,100220
2019-05-11T20:22:23.738Z,100230
2019-05-11T20:24:25.174Z,100230
2019-05-11T20:26:23.488Z,100240
2019-05-11T20:28:23.446Z,100230
2019-05-11T20:30:23.330Z,100230
2019-05-11T20:32:38.856Z,100230
2019-05-11T20:32:38.875Z,100230
2019-05-11T20:34:25.004Z,100240
2019-05-11T20:36:23.135Z,100240
2019-05-11T20:36:42.683Z,100240
2019-05-11T20:38:22.802Z,100240
2019-05-11T20:40:22.792Z,100240
2019-05-11T20:42:24.650Z,100240
2019-05-11T20:44:22.524Z,100250
2019-05-11T20:46:15.363Z,100250
2019-05-11T20:46:24.165Z,100250
2019-05-11T20:48:22.261Z,100250
2019-05-11T20:50:22.040Z,100250
2019-05-11T20:52:22.962Z,100250
2019-05-11T20:54:23.391Z,100260
2019-05-11T20:54:23.620Z,100260
2019-05-11T20:56:28.243Z,100260
2019-05-11T20:57:39.410Z,100260
2019-05-11T20:58:34.116Z,100260
2019-05-11T20:58:35.598Z,100260
2019-05-11T21:00:21.816Z,100260
2019-05-11T21:02:25.233Z,100270
2019-05-11T21:03:03.706Z,100270
2019-05-11T21:04:21.603Z,100270
2019-05-11T21:06:21.079Z,100280
2019-05-11T21:08:20.943Z,100280
2019-05-11T21:09:58.355Z,100280
2019-05-11T21:10:20.791Z,100280
2019-05-11T21:10:41.645Z,100280
2019-05-11T21:10:41.694Z,100280
2019-05-11T21:12:21.128Z,100280
2019-05-11T21:14:21.808Z,100290
2019-05-11T21:14:50.762Z,100290
2019-05-11T21:14:50.900Z,100290
2019-05-11T21:15:53.979Z,100290
2019-05-11T21:15:54.037Z,100290
2019-05-11T21:16:20.284Z,100280
2019-05-11T21:18:20.521Z,100280
2019-05-11T21:20:20.439Z,100290
2019-05-11T21:22:19.849Z,100290
2019-05-11T21:24:19.611Z,100290
2019-05-11T21:26:20.651Z,100300
2019-05-11T21:28:19.833Z,100290
2019-05-11T21:30:19.400Z,100300
2019-05-11T21:32:39.710Z,100300
2019-05-11T21:32:39.833Z,100300
2019-05-11T21:34:19.221Z,100300
2019-05-11T21:36:18.915Z,100300
2019-05-11T21:38:18.782Z,100310
2019-05-11T21:40:19.288Z,100310
2019-05-11T21:42:18.395Z,100310
2019-05-11T21:44:22.143Z,100310
2019-05-11T21:46:18.277Z,100310
2019-05-11T21:48:18.041Z,100320
2019-05-11T21:50:19.039Z,100320
2019-05-11T21:52:18.923Z,100320
2019-05-11T21:54:17.534Z,100320
2019-05-11T21:56:18.711Z,100330
2019-05-11T21:58:18.215Z,100330
2019-05-11T22:00:23.093Z,100340
2019-05-11T22:02:18.492Z,100340
2019-05-11T22:04:19.165Z,100340
2019-05-11T22:05:25.083Z,100340
2019-05-11T22:05:32.050Z,100340
2019-05-11T22:05:32.425Z,100340
2019-05-11T22:06:16.701Z,100340
2019-05-11T22:08:17.903Z,100340
2019-05-11T22:10:17.774Z,100330
2019-05-11T22:12:18.759Z,100340
2019-05-11T22:14:16.115Z,100330
2019-05-11T22:16:16.151Z,100340
2019-05-11T22:18:28.263Z,100340
2019-05-11T22:20:18.400Z,100350
2019-05-11T22:22:22.482Z,100350
2019-05-11T22:24:15.302Z,100350
2019-05-11T22:26:14.785Z,100350
2019-05-11T22:26:18.839Z,100360
2019-05-11T22:28:17.525Z,100350
2019-05-11T22:30:15.038Z,100360
2019-05-11T22:32:14.759Z,100360
2019-05-11T22:34:17.791Z,100360
2019-05-11T22:36:14.657Z,100360
2019-05-11T22:38:15.651Z,100360
2019-05-11T22:40:14.685Z,100360
2019-05-11T22:42:15.293Z,100360
2019-05-11T22:44:18.142Z,100360
2019-05-11T22:46:13.911Z,100360
2019-05-11T22:48:13.650Z,100360
2019-05-11T22:50:14.211Z,100370
2019-05-11T22:52:14.173Z,100360
2019-05-11T22:54:13.879Z,100370
2019-05-11T22:56:13.239Z,100370
2019-05-11T22:58:12.848Z,100380
2019-05-11T23:00:14.010Z,100380
2019-05-11T23:02:12.496Z,100380
2019-05-11T23:04:12.345Z,100380
2019-05-11T23:06:14.256Z,100380
2019-05-11T23:08:13.555Z,100380
2019-05-11T23:10:12.041Z,100390
2019-05-11T23:12:13.239Z,100390
2019-05-11T23:14:11.657Z,100390
2019-05-11T23:16:11.475Z,100390
2019-05-11T23:18:11.410Z,100390
2019-05-11T23:20:11.985Z,100390
2019-05-11T23:22:10.868Z,100400
2019-05-11T23:24:19.078Z,100400
2019-05-11T23:26:10.805Z,100400
2019-05-11T23:28:10.430Z,100410
2019-05-11T23:30:10.751Z,100410
2019-05-11T23:32:11.031Z,100410
2019-05-11T23:34:09.850Z,100410
2019-05-11T23:36:09.784Z,100420
2019-05-11T23:38:09.426Z,100420
2019-05-11T23:40:11.338Z,100420